createdAt,value
2018-06-09T00:02:11.880Z,2.67
2018-06-09T00:04:40.275Z,2.77
2018-06-09T00:07:08.718Z,2.20
2018-06-09T00:09:37.116Z,2.50
2018-06-09T00:12:05.513Z,2.60
2018-06-09T00:14:33.881Z,2.80
2018-06-09T00:17:02.257Z,2.57
2018-06-09T00:19:30.645Z,2.27
2018-06-09T00:21:58.913Z,2.80
2018-06-09T00:24:27.725Z,2.73
2018-06-09T00:26:56.348Z,2.30
2018-06-09T00:29:24.830Z,2.43
2018-06-09T00:31:53.230Z,2.50
2018-06-09T00:34:21.805Z,2.70
2018-06-09T00:36:50.218Z,2.70
2018-06-09T00:39:18.950Z,2.50
2018-06-09T00:41:47.242Z,2.23
2018-06-09T00:44:15.765Z,2.60
2018-06-09T00:46:44.199Z,2.67
2018-06-09T00:49:12.613Z,2.47
2018-06-09T00:51:41.038Z,2.80
2018-06-09T00:54:09.425Z,2.60
2018-06-09T00:56:44.730Z,2.33
2018-06-09T00:59:13.127Z,2.87
2018-06-09T01:01:41.622Z,2.60
2018-06-09T01:04:10.000Z,2.57
2018-06-09T01:06:38.400Z,2.57
2018-06-09T01:09:07.776Z,3.20
2018-06-09T01:11:36.314Z,3.17
2018-06-09T01:14:04.790Z,3.10
2018-06-09T01:16:33.192Z,2.90
2018-06-09T01:19:01.667Z,2.50
2018-06-09T01:21:30.013Z,2.83
2018-06-09T01:23:58.395Z,2.83
2018-06-09T01:26:26.737Z,2.70
2018-06-09T01:28:55.176Z,3.00
2018-06-09T01:31:23.933Z,2.60
2018-06-09T01:33:52.358Z,2.83
2018-06-09T01:36:20.795Z,3.10
2018-06-09T01:38:49.209Z,2.73
2018-06-09T01:41:17.581Z,3.00
2018-06-09T01:43:46.005Z,2.90
2018-06-09T01:46:14.415Z,3.07
2018-06-09T01:48:42.778Z,2.80
2018-06-09T01:51:11.132Z,2.90
2018-06-09T01:53:40.101Z,2.70
2018-06-09T01:56:08.500Z,2.80
2018-06-09T01:58:36.930Z,3.07
2018-06-09T02:01:05.395Z,3.07
2018-06-09T02:03:33.790Z,2.90
2018-06-09T02:06:02.132Z,3.33
2018-06-09T02:08:30.568Z,3.10
2018-06-09T02:10:59.031Z,3.03
2018-06-09T02:13:27.457Z,3.43
2018-06-09T02:15:55.884Z,3.10
2018-06-09T02:18:24.374Z,3.13
2018-06-09T02:20:53.172Z,3.63
2018-06-09T02:23:21.560Z,3.83
2018-06-09T02:25:49.953Z,3.57
2018-06-09T02:28:18.393Z,3.70
2018-06-09T02:30:46.816Z,3.10
2018-06-09T02:33:15.187Z,3.00
2018-06-09T02:35:43.596Z,3.70
2018-06-09T02:38:11.992Z,3.67
2018-06-09T02:40:40.386Z,2.90
2018-06-09T02:43:08.741Z,3.27
2018-06-09T02:45:37.106Z,3.60
2018-06-09T02:48:05.568Z,3.73
2018-06-09T02:50:33.939Z,3.37
2018-06-09T02:53:02.316Z,3.10
2018-06-09T02:55:31.197Z,3.30
2018-06-09T02:57:59.608Z,3.93
2018-06-09T03:00:27.945Z,3.37
2018-06-09T03:02:56.318Z,3.00
2018-06-09T03:05:24.795Z,3.30
2018-06-09T03:07:53.163Z,3.60
2018-06-09T03:10:21.588Z,3.67
2018-06-09T03:12:49.994Z,3.00
2018-06-09T03:15:18.441Z,3.17
2018-06-09T03:17:47.288Z,3.27
2018-06-09T03:20:15.720Z,3.57
2018-06-09T03:22:44.083Z,3.53
2018-06-09T03:25:12.502Z,3.57
2018-06-09T03:27:40.917Z,3.40
2018-06-09T03:30:09.214Z,3.10
2018-06-09T03:32:37.568Z,4.23
2018-06-09T03:35:06.388Z,3.20
2018-06-09T03:37:34.814Z,3.00
2018-06-09T03:40:03.197Z,3.47
2018-06-09T03:42:31.558Z,3.27
2018-06-09T03:45:00.022Z,4.00
2018-06-09T03:47:28.401Z,3.43
2018-06-09T03:49:56.737Z,3.43
2018-06-09T03:52:25.141Z,3.60
2018-06-09T03:54:53.516Z,2.77
2018-06-09T03:57:21.952Z,3.20
2018-06-09T03:59:50.314Z,3.60
2018-06-09T04:02:19.157Z,3.20
2018-06-09T04:04:47.549Z,3.97
2018-06-09T04:07:15.953Z,3.20
2018-06-09T04:09:44.269Z,3.73
2018-06-09T04:12:12.676Z,3.00
2018-06-09T04:14:41.015Z,3.30
2018-06-09T04:17:09.313Z,3.23
2018-06-09T04:19:37.647Z,3.50
2018-06-09T04:22:06.040Z,3.40
2018-06-09T04:24:34.776Z,3.70
2018-06-09T04:27:03.157Z,3.60
2018-06-09T04:29:31.583Z,3.30
2018-06-09T04:31:59.937Z,3.50
2018-06-09T04:34:28.310Z,3.80
2018-06-09T04:36:56.762Z,3.63
2018-06-09T04:39:25.237Z,3.53
2018-06-09T04:41:53.636Z,3.57
2018-06-09T04:44:22.030Z,3.90
2018-06-09T04:46:50.397Z,3.40
2018-06-09T04:49:18.870Z,3.03
2018-06-09T04:51:47.258Z,3.93
2018-06-09T04:54:15.662Z,3.90
2018-06-09T04:56:44.055Z,3.53
2018-06-09T04:59:12.370Z,3.97
2018-06-09T05:01:40.776Z,3.60
2018-06-09T05:04:09.164Z,3.37
2018-06-09T05:06:37.508Z,3.77
2018-06-09T05:09:07.828Z,3.57
2018-06-09T05:11:36.284Z,3.90
2018-06-09T05:14:04.650Z,3.77
2018-06-09T05:16:32.987Z,3.63
2018-06-09T05:19:01.529Z,3.30
2018-06-09T05:21:30.009Z,2.93
2018-06-09T05:23:58.338Z,3.30
2018-06-09T05:26:26.759Z,3.40
2018-06-09T05:28:55.128Z,3.10
2018-06-09T05:31:23.466Z,3.70
2018-06-09T05:33:51.840Z,4.10
2018-06-09T05:36:20.293Z,4.40
2018-06-09T05:38:48.697Z,4.10
2018-06-09T05:41:17.182Z,3.97
2018-06-09T05:43:45.624Z,4.00
2018-06-09T05:46:14.098Z,3.47
2018-06-09T05:48:42.435Z,3.70
2018-06-09T05:51:10.788Z,3.57
2018-06-09T05:53:39.181Z,3.50
2018-06-09T05:56:07.607Z,3.67
2018-06-09T05:58:35.945Z,4.30
2018-06-09T06:01:04.324Z,3.70
2018-06-09T06:03:32.718Z,3.50
2018-06-09T06:06:01.094Z,4.13
2018-06-09T06:08:29.519Z,5.80
2018-06-09T06:10:57.969Z,4.23
2018-06-09T06:13:26.388Z,5.33
2018-06-09T06:15:54.791Z,4.50
2018-06-09T06:18:23.099Z,5.20
2018-06-09T06:20:52.080Z,4.17
2018-06-09T06:23:20.469Z,4.27
2018-06-09T06:25:48.890Z,4.23
2018-06-09T06:28:17.805Z,4.70
2018-06-09T06:30:46.115Z,4.33
2018-06-09T06:33:14.550Z,4.03
2018-06-09T06:35:42.969Z,3.50
2018-06-09T06:38:11.325Z,4.33
2018-06-09T06:40:39.813Z,4.90
2018-06-09T06:43:08.233Z,4.30
2018-06-09T06:45:36.727Z,2.80
2018-06-09T06:48:04.884Z,3.87
2018-06-09T06:50:33.278Z,4.63
2018-06-09T06:53:01.703Z,3.57
2018-06-09T06:55:30.054Z,4.83
2018-06-09T06:57:58.405Z,4.40
2018-06-09T07:00:26.793Z,6.10
2018-06-09T07:02:55.125Z,4.03
2018-06-09T07:05:23.536Z,3.73
2018-06-09T07:07:52.023Z,4.13
2018-06-09T07:10:20.883Z,4.40
2018-06-09T07:12:49.219Z,5.67
2018-06-09T07:15:17.599Z,4.53
2018-06-09T07:17:45.928Z,4.27
2018-06-09T07:20:14.300Z,3.53
2018-06-09T07:22:42.694Z,5.10
2018-06-09T07:25:11.069Z,4.53
2018-06-09T07:27:39.470Z,3.97
2018-06-09T07:30:08.053Z,4.33
2018-06-09T07:32:36.460Z,4.77
2018-06-09T07:35:04.837Z,4.80
2018-06-09T07:37:33.190Z,4.93
2018-06-09T07:40:01.554Z,4.80
2018-06-09T07:42:29.945Z,4.57
2018-06-09T07:44:58.351Z,4.27
2018-06-09T07:47:26.800Z,4.10
2018-06-09T07:49:55.139Z,4.43
2018-06-09T07:52:23.544Z,4.50
2018-06-09T07:54:52.103Z,3.83
2018-06-09T07:57:20.633Z,3.83
2018-06-09T07:59:49.012Z,4.70
2018-06-09T08:02:17.432Z,4.30
2018-06-09T08:04:45.914Z,4.60
2018-06-09T08:07:14.482Z,4.30
2018-06-09T08:09:42.860Z,4.70
2018-06-09T08:12:11.296Z,4.47
2018-06-09T08:14:39.795Z,6.33
2018-06-09T08:17:08.317Z,5.27
2018-06-09T08:19:36.669Z,4.27
2018-06-09T08:22:05.028Z,3.73
2018-06-09T08:24:33.413Z,3.53
2018-06-09T08:27:02.342Z,5.67
2018-06-09T08:29:30.910Z,6.70
2018-06-09T08:31:59.397Z,4.80
2018-06-09T08:34:27.815Z,4.73
2018-06-09T08:36:56.205Z,4.87
2018-06-09T08:39:32.525Z,5.27
2018-06-09T08:42:01.076Z,4.27
2018-06-09T08:44:29.669Z,4.40
2018-06-09T08:46:58.050Z,5.30
2018-06-09T08:49:26.530Z,5.70
2018-06-09T08:51:54.941Z,5.10
2018-06-09T08:54:23.344Z,4.40
2018-06-09T08:56:51.935Z,4.77
2018-06-09T08:59:20.430Z,5.60
2018-06-09T09:01:48.788Z,5.10
2018-06-09T09:04:17.835Z,4.97
2018-06-09T09:06:46.226Z,5.20
2018-06-09T09:09:14.778Z,6.97
2018-06-09T09:11:43.266Z,4.90
2018-06-09T09:14:14.772Z,5.80
2018-06-09T09:16:43.181Z,6.70
2018-06-09T09:19:11.499Z,6.90
2018-06-09T09:21:39.836Z,6.53
2018-06-09T09:24:08.233Z,7.20
2018-06-09T09:26:36.593Z,6.87
2018-06-09T09:29:04.982Z,7.37
2018-06-09T09:31:35.375Z,7.37
2018-06-09T09:34:03.904Z,5.50
2018-06-09T09:36:32.314Z,5.07
2018-06-09T09:39:01.687Z,4.80
2018-06-09T09:41:52.741Z,5.83
2018-06-09T09:44:22.648Z,5.40
2018-06-09T09:46:51.130Z,5.07
2018-06-09T09:49:19.735Z,5.87
2018-06-09T09:51:48.502Z,6.93
2018-06-09T09:54:16.954Z,5.30
2018-06-09T09:56:47.214Z,4.77
2018-06-09T09:59:15.542Z,7.03
2018-06-09T10:01:43.922Z,7.78
2018-06-09T10:04:12.309Z,5.53
2018-06-09T10:06:40.692Z,6.67
2018-06-09T10:09:09.112Z,5.93
2018-06-09T10:11:37.548Z,6.67
2018-06-09T10:14:05.861Z,6.00
2018-06-09T10:16:34.262Z,6.53
2018-06-09T10:19:02.672Z,6.80
2018-06-09T10:21:31.045Z,6.93
2018-06-09T10:23:59.785Z,6.03
2018-06-09T10:26:28.556Z,5.37
2018-06-09T10:28:56.995Z,5.73
2018-06-09T10:31:25.497Z,6.30
2018-06-09T10:33:54.043Z,6.90
2018-06-09T10:36:26.032Z,6.40
2018-06-09T10:38:54.516Z,6.97
2018-06-09T10:41:22.904Z,5.93
2018-06-09T10:43:51.275Z,6.63
2018-06-09T10:46:21.388Z,7.33
2018-06-09T10:48:49.885Z,6.93
2018-06-09T10:51:18.241Z,6.97
2018-06-09T10:53:46.681Z,7.63
2018-06-09T10:56:15.216Z,6.85
2018-06-09T10:58:46.646Z,6.57
2018-06-09T11:01:15.121Z,5.43
2018-06-09T11:03:43.807Z,5.70
2018-06-09T11:06:12.210Z,6.20
2018-06-09T11:08:44.412Z,6.40
2018-06-09T11:11:13.632Z,7.80
2018-06-09T11:13:41.976Z,5.63
2018-06-09T11:16:10.325Z,6.33
2018-06-09T11:18:38.665Z,5.00
2018-06-09T11:21:07.129Z,5.20
2018-06-09T11:23:35.581Z,5.50
2018-06-09T11:26:04.388Z,7.30
2018-06-09T11:28:32.768Z,6.63
2018-06-09T11:31:01.208Z,7.67
2018-06-09T11:33:35.858Z,20.10
2018-06-09T11:36:04.972Z,43.38
2018-06-09T11:38:33.518Z,17.20
2018-06-09T11:41:01.920Z,10.38
2018-06-09T11:43:30.425Z,6.87
2018-06-09T11:45:58.783Z,6.00
2018-06-09T11:48:28.062Z,6.10
2018-06-09T11:50:56.581Z,6.10
2018-06-09T11:53:24.978Z,6.50
2018-06-09T11:55:53.438Z,6.17
2018-06-09T11:58:21.853Z,7.57
2018-06-09T12:00:50.196Z,6.77
2018-06-09T12:03:18.561Z,6.67
2018-06-09T12:05:47.012Z,6.07
2018-06-09T12:08:22.095Z,6.37
2018-06-09T12:10:51.006Z,7.17
2018-06-09T12:13:19.344Z,7.03
2018-06-09T12:15:47.747Z,6.43
2018-06-09T12:18:16.110Z,7.87
2018-06-09T12:20:44.474Z,7.37
2018-06-09T12:23:13.152Z,6.97
2018-06-09T12:25:41.529Z,7.50
2018-06-09T12:28:10.945Z,8.27
2018-06-09T12:30:39.329Z,7.60
2018-06-09T12:33:07.789Z,7.23
2018-06-09T12:35:36.178Z,8.27
2018-06-09T12:38:04.685Z,8.20
2018-06-09T12:40:33.108Z,5.80
2018-06-09T12:43:01.645Z,8.87
2018-06-09T12:45:30.054Z,7.87
2018-06-09T12:47:58.580Z,10.57
2018-06-09T12:50:27.113Z,6.80
2018-06-09T12:52:55.440Z,7.37
2018-06-09T12:55:23.832Z,9.23
2018-06-09T12:57:53.192Z,8.13
2018-06-09T13:00:21.580Z,8.23
2018-06-09T13:02:50.005Z,7.23
2018-06-09T13:05:18.938Z,8.57
2018-06-09T13:07:47.326Z,8.97
2018-06-09T13:10:15.777Z,9.77
2018-06-09T13:12:44.113Z,8.37
2018-06-09T13:15:13.002Z,7.77
2018-06-09T13:17:41.572Z,7.33
2018-06-09T13:20:10.208Z,8.97
2018-06-09T13:22:39.212Z,8.70
2018-06-09T13:25:09.879Z,7.10
2018-06-09T13:27:38.404Z,7.00
2018-06-09T13:30:07.928Z,7.97
2018-06-09T13:32:36.369Z,6.50
2018-06-09T13:35:04.820Z,6.27
2018-06-09T13:37:33.885Z,7.20
2018-06-09T13:40:03.455Z,7.30
2018-06-09T13:42:31.849Z,6.70
2018-06-09T13:45:00.315Z,7.30
2018-06-09T13:47:28.808Z,6.50
2018-06-09T13:49:57.228Z,6.30
2018-06-09T13:52:26.035Z,6.40
2018-06-09T13:54:54.812Z,6.33
2018-06-09T13:57:23.889Z,7.30
2018-06-09T13:59:52.268Z,6.20
2018-06-09T14:02:20.743Z,7.07
2018-06-09T14:04:49.153Z,6.40
2018-06-09T14:07:17.439Z,8.30
2018-06-09T14:09:45.790Z,6.50
2018-06-09T14:12:14.916Z,7.37
2018-06-09T14:14:44.301Z,5.43
2018-06-09T14:17:12.732Z,60.10
2018-06-09T14:19:41.117Z,40.10
2018-06-09T14:22:09.475Z,22.50
2018-06-09T14:24:37.814Z,10.73
2018-06-09T14:27:06.603Z,7.83
2018-06-09T14:29:35.014Z,6.40
2018-06-09T14:32:03.495Z,6.13
2018-06-09T14:34:31.818Z,6.93
2018-06-09T14:37:00.233Z,6.90
2018-06-09T14:39:28.925Z,6.00
2018-06-09T14:41:57.052Z,6.13
2018-06-09T14:44:25.336Z,5.27
2018-06-09T14:46:53.677Z,4.60
2018-06-09T14:49:22.024Z,6.77
2018-06-09T14:51:50.364Z,6.70
2018-06-09T14:54:18.725Z,7.17
2018-06-09T14:56:47.084Z,6.33
2018-06-09T14:59:15.433Z,7.10
2018-06-09T15:01:43.909Z,5.87
2018-06-09T15:04:12.299Z,6.47
2018-06-09T15:06:41.549Z,6.63
2018-06-09T15:09:09.940Z,6.90
2018-06-09T15:11:38.378Z,5.83
2018-06-09T15:14:06.933Z,6.03
2018-06-09T15:16:36.779Z,7.83
2018-06-09T15:19:05.321Z,6.43
2018-06-09T15:21:33.800Z,6.40
2018-06-09T15:24:02.182Z,6.17
2018-06-09T15:26:30.604Z,6.37
2018-06-09T15:28:59.048Z,6.00
2018-06-09T15:31:27.588Z,6.50
2018-06-09T15:33:55.994Z,6.03
2018-06-09T15:36:28.478Z,6.97
2018-06-09T15:38:56.849Z,6.07
2018-06-09T15:41:25.441Z,5.63
2018-06-09T15:43:53.903Z,5.40
2018-06-09T15:46:22.278Z,5.80
2018-06-09T15:48:50.641Z,6.20
2018-06-09T15:51:18.968Z,6.07
2018-06-09T15:53:47.368Z,5.07
2018-06-09T15:56:15.664Z,5.50
2018-06-09T15:58:44.169Z,6.23
2018-06-09T16:01:12.528Z,5.07
2018-06-09T16:03:40.959Z,5.90
2018-06-09T16:06:09.433Z,6.13
2018-06-09T16:08:37.845Z,5.90
2018-06-09T16:11:06.301Z,5.60
2018-06-09T16:13:34.645Z,5.60
2018-06-09T16:16:04.174Z,5.60
2018-06-09T16:18:32.702Z,4.83
2018-06-09T16:21:01.152Z,5.10
2018-06-09T16:23:29.852Z,5.27
2018-06-09T16:25:59.164Z,5.90
2018-06-09T16:28:27.621Z,5.17
2018-06-09T16:30:55.996Z,5.33
2018-06-09T16:33:24.329Z,5.63
2018-06-09T16:35:52.852Z,5.60
2018-06-09T16:38:21.148Z,5.93
2018-06-09T16:40:49.505Z,6.77
2018-06-09T16:43:17.916Z,5.77
2018-06-09T16:45:46.303Z,6.40
2018-06-09T16:48:14.798Z,5.07
2018-06-09T16:50:43.166Z,6.03
2018-06-09T16:53:11.516Z,4.53
2018-06-09T16:55:40.029Z,7.20
2018-06-09T16:58:08.377Z,6.33
2018-06-09T17:00:36.779Z,7.43
2018-06-09T17:03:05.210Z,7.00
2018-06-09T17:05:34.087Z,6.23
2018-06-09T17:08:02.660Z,5.83
2018-06-09T17:10:31.032Z,5.43
2018-06-09T17:12:59.354Z,5.07
2018-06-09T17:15:34.769Z,5.27
2018-06-09T17:18:05.934Z,5.27
2018-06-09T17:20:34.430Z,5.10
2018-06-09T17:23:02.832Z,5.40
2018-06-09T17:25:31.204Z,4.77
2018-06-09T17:27:59.557Z,4.70
2018-06-09T17:30:27.938Z,5.50
2018-06-09T17:32:56.350Z,5.27
2018-06-09T17:35:24.501Z,4.57
2018-06-09T17:37:52.926Z,5.63
2018-06-09T17:40:21.288Z,5.17
2018-06-09T17:42:49.822Z,5.23
2018-06-09T17:45:18.196Z,5.33
2018-06-09T17:47:46.712Z,5.20
2018-06-09T17:50:15.096Z,6.43
2018-06-09T17:52:43.648Z,5.23
2018-06-09T17:55:12.025Z,5.00
2018-06-09T17:57:40.413Z,5.00
2018-06-09T18:00:08.877Z,6.07
2018-06-09T18:02:37.321Z,4.87
2018-06-09T18:05:05.865Z,4.73
2018-06-09T18:07:34.425Z,5.50
2018-06-09T18:10:02.892Z,4.87
2018-06-09T18:12:31.527Z,4.83
2018-06-09T18:15:00.248Z,4.90
2018-06-09T18:17:28.760Z,4.70
2018-06-09T18:19:57.261Z,4.93
2018-06-09T18:22:25.703Z,4.33
2018-06-09T18:24:54.161Z,4.63
2018-06-09T18:27:24.547Z,4.90
2018-06-09T18:29:52.920Z,4.47
2018-06-09T18:32:21.460Z,5.00
2018-06-09T18:34:49.968Z,4.80
2018-06-09T18:37:19.415Z,4.47
2018-06-09T18:39:47.916Z,5.00
2018-06-09T18:42:23.637Z,4.80
2018-06-09T18:44:52.064Z,4.40
2018-06-09T18:47:20.412Z,4.27
2018-06-09T18:49:50.733Z,5.00
2018-06-09T18:52:19.112Z,4.70
2018-06-09T18:54:48.022Z,5.57
2018-06-09T18:57:16.204Z,5.00
2018-06-09T18:59:44.770Z,5.10
2018-06-09T19:02:13.438Z,5.20
2018-06-09T19:04:41.853Z,5.10
2018-06-09T19:07:13.529Z,4.83
2018-06-09T19:09:41.980Z,4.70
2018-06-09T19:12:14.080Z,4.87
2018-06-09T19:14:42.513Z,5.00
2018-06-09T19:17:10.873Z,4.30
2018-06-09T19:19:39.299Z,5.17
2018-06-09T19:22:08.176Z,4.50
2018-06-09T19:24:37.304Z,5.07
2018-06-09T19:27:05.825Z,4.27
2018-06-09T19:29:34.846Z,5.03
2018-06-09T19:32:07.731Z,4.90
2018-06-09T19:34:37.125Z,4.03
2018-06-09T19:37:12.937Z,4.27
2018-06-09T19:39:46.485Z,4.80
2018-06-09T19:42:15.703Z,4.40
2018-06-09T19:45:44.671Z,4.50
2018-06-09T19:48:13.874Z,4.93
2018-06-09T19:50:43.650Z,6.28
2018-06-09T19:53:23.107Z,4.53
2018-06-09T19:59:18.003Z,4.27
2018-06-09T20:02:03.853Z,5.00
2018-06-09T20:11:01.679Z,5.17
2018-06-09T20:20:13.204Z,4.50
2018-06-09T20:28:56.625Z,4.20
2018-06-09T20:31:43.743Z,5.10
2018-06-09T20:42:21.340Z,3.90
2018-06-09T20:44:49.728Z,3.73
2018-06-09T20:47:18.196Z,4.30
2018-06-09T20:49:48.978Z,4.53
2018-06-09T20:52:19.334Z,3.90
2018-06-09T20:54:47.910Z,4.13
2018-06-09T20:57:16.346Z,4.00
2018-06-09T20:59:44.752Z,4.87
2018-06-09T21:02:13.206Z,4.60
2018-06-09T21:04:41.546Z,4.40
2018-06-09T21:07:09.977Z,4.50
2018-06-09T21:09:38.390Z,3.77
2018-06-09T21:12:07.256Z,4.17
2018-06-09T21:14:35.606Z,3.93
2018-06-09T21:17:03.961Z,4.00
2018-06-09T21:19:32.473Z,4.30
2018-06-09T21:22:00.872Z,4.90
2018-06-09T21:24:29.265Z,4.50
2018-06-09T21:27:02.989Z,4.33
2018-06-09T21:29:38.666Z,4.20
2018-06-09T21:32:09.047Z,4.23
2018-06-09T21:34:54.021Z,5.07
2018-06-09T21:37:31.213Z,3.97
2018-06-09T21:40:01.929Z,4.20
2018-06-09T21:42:35.592Z,4.27
2018-06-09T21:45:11.563Z,3.93
2018-06-09T21:47:40.226Z,3.90
2018-06-09T21:50:08.537Z,4.07
2018-06-09T21:52:36.960Z,4.50
2018-06-09T21:55:05.813Z,4.83
2018-06-09T21:57:34.210Z,4.57
2018-06-09T22:00:02.245Z,4.50
2018-06-09T22:02:30.681Z,4.07
2018-06-09T22:04:59.240Z,3.90
2018-06-09T22:07:27.784Z,4.17
2018-06-09T22:09:56.134Z,4.20
2018-06-09T22:12:24.631Z,4.70
2018-06-09T22:14:53.095Z,4.33
2018-06-09T22:17:21.475Z,4.53
2018-06-09T22:19:49.790Z,4.30
2018-06-09T22:22:18.173Z,4.20
2018-06-09T22:24:56.142Z,4.47
2018-06-09T22:27:24.560Z,4.33
2018-06-09T22:29:53.873Z,4.40
2018-06-09T22:32:22.300Z,4.80
2018-06-09T22:34:50.712Z,4.67
2018-06-09T22:37:19.099Z,5.30
2018-06-09T22:39:47.463Z,4.77
2018-06-09T22:42:15.884Z,4.97
2018-06-09T22:44:44.379Z,5.37
2018-06-09T22:47:12.826Z,4.17
2018-06-09T22:49:41.146Z,4.63
2018-06-09T22:52:09.619Z,3.80
2018-06-09T22:54:38.013Z,3.83
2018-06-09T22:57:06.384Z,4.47
2018-06-09T22:59:34.712Z,5.07
2018-06-09T23:02:03.032Z,4.53
2018-06-09T23:04:31.379Z,4.53
2018-06-09T23:06:59.805Z,4.43
2018-06-09T23:09:28.252Z,4.70
2018-06-09T23:11:56.681Z,5.00
2018-06-09T23:14:25.093Z,5.23
2018-06-09T23:16:53.522Z,5.23
2018-06-09T23:19:21.595Z,4.77
2018-06-09T23:21:50.001Z,5.30
2018-06-09T23:24:18.391Z,6.00
2018-06-09T23:26:46.749Z,5.77
2018-06-09T23:29:15.096Z,5.90
2018-06-09T23:31:43.434Z,5.60
2018-06-09T23:34:11.823Z,6.37
2018-06-09T23:36:40.212Z,6.23
2018-06-09T23:39:08.824Z,6.10
2018-06-09T23:41:37.192Z,6.63
2018-06-09T23:44:05.553Z,6.17
2018-06-09T23:46:34.224Z,5.87
2018-06-09T23:49:02.696Z,5.40
2018-06-09T23:51:31.091Z,6.17
2018-06-09T23:53:59.513Z,5.77
2018-06-09T23:56:27.997Z,5.33
2018-06-09T23:58:56.475Z,5.60
